createdAt,value
2019-05-15T00:01:15.099Z,28.80
2019-05-15T00:03:46.348Z,28.25
2019-05-15T00:06:19.061Z,21.65
2019-05-15T00:08:50.577Z,23.30
2019-05-15T00:11:23.030Z,35.65
2019-05-15T00:13:55.470Z,26.33
2019-05-15T00:16:29.206Z,30.37
2019-05-15T00:19:00.867Z,31.40
2019-05-15T00:21:32.153Z,27.15
2019-05-15T00:24:03.503Z,25.65
2019-05-15T00:26:38.518Z,26.60
2019-05-15T00:29:15.799Z,31.05
2019-05-15T00:31:43.670Z,27.80
2019-05-15T00:34:15.509Z,27.77
2019-05-15T00:36:48.929Z,30.75
2019-05-15T00:39:19.741Z,32.10
2019-05-15T00:41:54.581Z,28.92
2019-05-15T00:44:23.799Z,36.23
2019-05-15T00:46:55.543Z,31.33
2019-05-15T00:49:28.956Z,32.65
2019-05-15T00:52:00.701Z,31.68
2019-05-15T00:54:33.079Z,28.83
2019-05-15T00:57:05.036Z,33.85
2019-05-15T00:59:36.181Z,28.62
2019-05-15T01:02:08.682Z,33.20
2019-05-15T01:04:40.199Z,33.15
2019-05-15T01:07:11.964Z,31.75
2019-05-15T01:09:43.606Z,35.03
2019-05-15T01:12:18.513Z,36.05
2019-05-15T01:14:50.197Z,30.02
2019-05-15T01:17:22.155Z,33.88
2019-05-15T01:19:53.504Z,29.65
2019-05-15T01:22:28.520Z,34.85
2019-05-15T01:24:59.056Z,27.70
2019-05-15T01:27:32.442Z,35.05
2019-05-15T01:30:04.653Z,28.60
2019-05-15T01:32:36.286Z,28.35
2019-05-15T01:35:09.796Z,30.25
2019-05-15T01:37:40.826Z,35.17
2019-05-15T01:40:12.272Z,47.80
2019-05-15T01:42:43.626Z,42.58
2019-05-15T01:45:18.827Z,32.00
2019-05-15T01:47:49.799Z,34.35
2019-05-15T01:50:21.249Z,40.35
2019-05-15T01:52:52.686Z,39.58
2019-05-15T01:55:24.151Z,34.78
2019-05-15T01:57:58.097Z,40.40
2019-05-15T02:00:28.469Z,38.25
2019-05-15T02:02:59.937Z,46.70
2019-05-15T02:05:31.371Z,44.35
2019-05-15T02:08:03.146Z,46.20
2019-05-15T02:10:34.697Z,40.75
2019-05-15T02:13:08.521Z,42.88
2019-05-15T02:15:40.931Z,36.25
2019-05-15T02:18:14.308Z,38.73
2019-05-15T02:20:45.926Z,38.02
2019-05-15T02:23:19.640Z,35.65
2019-05-15T02:25:50.886Z,50.08
2019-05-15T02:28:25.027Z,36.30
2019-05-15T02:30:58.685Z,37.45
2019-05-15T02:33:30.106Z,33.45
2019-05-15T02:36:01.664Z,38.28
2019-05-15T02:38:34.810Z,37.23
2019-05-15T02:41:09.688Z,39.95
2019-05-15T02:43:39.471Z,37.15
2019-05-15T02:46:12.103Z,37.85
2019-05-15T02:48:43.796Z,38.58
2019-05-15T02:51:15.214Z,30.40
2019-05-15T02:53:49.757Z,35.75
2019-05-15T02:56:20.510Z,31.93
2019-05-15T02:58:51.914Z,35.55
2019-05-15T03:01:24.284Z,38.65
2019-05-15T03:03:55.734Z,33.20
2019-05-15T03:06:29.800Z,32.65
2019-05-15T03:09:03.355Z,30.52
2019-05-15T03:11:35.748Z,35.80
2019-05-15T03:14:09.298Z,30.40
2019-05-15T03:16:40.161Z,30.20
2019-05-15T03:19:11.605Z,33.75
2019-05-15T03:21:43.140Z,30.97
2019-05-15T03:24:15.741Z,32.23
2019-05-15T03:26:49.710Z,35.73
2019-05-15T03:29:21.135Z,29.18
2019-05-15T03:32:07.524Z,31.15
2019-05-15T03:34:30.708Z,25.10
2019-05-15T03:37:03.611Z,27.35
2019-05-15T03:39:31.813Z,28.02
2019-05-15T03:42:03.267Z,31.33
2019-05-15T03:44:35.021Z,30.02
2019-05-15T03:47:14.968Z,26.23
2019-05-15T03:49:49.157Z,23.50
2019-05-15T03:52:19.532Z,22.98
2019-05-15T03:54:50.963Z,24.30
2019-05-15T03:57:23.263Z,25.57
2019-05-15T03:59:55.071Z,32.20
2019-05-15T04:02:28.798Z,33.98
2019-05-15T04:05:01.654Z,51.28
2019-05-15T04:07:32.306Z,41.33
2019-05-15T04:10:03.866Z,26.45
2019-05-15T04:12:35.123Z,25.50
2019-05-15T04:15:09.810Z,32.25
2019-05-15T04:17:49.006Z,25.75
2019-05-15T04:20:14.339Z,28.73
2019-05-15T04:22:49.009Z,30.95
2019-05-15T04:25:19.418Z,30.17
2019-05-15T04:27:50.972Z,27.95
2019-05-15T04:30:25.401Z,32.48
2019-05-15T04:32:59.483Z,32.10
2019-05-15T04:35:30.749Z,32.60
2019-05-15T04:38:01.974Z,37.08
2019-05-15T04:40:33.123Z,30.85
2019-05-15T04:43:04.385Z,24.72
2019-05-15T04:45:38.985Z,28.57
2019-05-15T04:48:10.336Z,23.22
2019-05-15T04:50:41.784Z,25.23
2019-05-15T04:53:19.271Z,24.57
2019-05-15T04:55:49.715Z,21.77
2019-05-15T04:58:21.381Z,22.75
2019-05-15T05:00:53.896Z,24.75
2019-05-15T05:03:25.079Z,21.62
2019-05-15T05:05:59.124Z,23.12
2019-05-15T05:08:29.981Z,18.87
2019-05-15T05:11:02.209Z,20.12
2019-05-15T05:13:33.440Z,22.55
2019-05-15T05:16:09.216Z,23.77
2019-05-15T05:18:41.159Z,20.80
2019-05-15T05:21:12.216Z,18.82
2019-05-15T05:23:45.078Z,25.20
2019-05-15T05:26:18.630Z,21.65
2019-05-15T05:28:49.646Z,17.70
2019-05-15T05:31:21.294Z,16.07
2019-05-15T05:33:52.624Z,14.90
2019-05-15T05:36:24.194Z,15.65
2019-05-15T05:38:58.295Z,17.17
2019-05-15T05:41:30.165Z,18.65
2019-05-15T05:44:04.668Z,16.70
2019-05-15T05:46:36.137Z,15.50
2019-05-15T05:49:08.087Z,14.75
2019-05-15T05:51:39.590Z,16.12
2019-05-15T05:54:10.755Z,17.35
2019-05-15T05:56:42.094Z,21.93
2019-05-15T05:59:14.638Z,19.77
2019-05-15T06:01:48.157Z,19.55
2019-05-15T06:04:19.061Z,19.17
2019-05-15T06:07:06.154Z,16.87
2019-05-15T06:09:23.792Z,21.30
2019-05-15T06:11:55.231Z,17.42
2019-05-15T06:14:28.726Z,14.28
2019-05-15T06:17:00.005Z,21.45
2019-05-15T06:19:31.836Z,11.50
2019-05-15T06:22:04.953Z,15.05
2019-05-15T06:24:37.918Z,19.07
2019-05-15T06:27:09.483Z,7.55
2019-05-15T06:29:41.016Z,11.60
2019-05-15T06:32:12.588Z,17.62
2019-05-15T06:34:43.938Z,10.28
2019-05-15T06:37:15.284Z,15.70
2019-05-15T06:39:48.125Z,16.15
2019-05-15T06:42:19.874Z,16.02
2019-05-15T06:44:51.373Z,14.73
2019-05-15T06:47:22.824Z,13.32
2019-05-15T06:49:54.399Z,14.18
2019-05-15T06:52:28.290Z,6.05
2019-05-15T06:55:00.353Z,6.33
2019-05-15T06:57:31.667Z,6.87
2019-05-15T07:00:03.943Z,8.50
2019-05-15T07:02:37.930Z,8.50
2019-05-15T07:05:08.611Z,8.78
2019-05-15T07:07:41.867Z,9.13
2019-05-15T07:10:14.555Z,4.22
2019-05-15T07:12:48.495Z,6.85
2019-05-15T07:15:19.027Z,6.00
2019-05-15T07:17:50.351Z,5.72
2019-05-15T07:20:22.247Z,4.95
2019-05-15T07:22:53.593Z,5.62
2019-05-15T07:25:29.199Z,7.05
2019-05-15T07:27:59.788Z,10.00
2019-05-15T07:30:33.031Z,8.30
2019-05-15T07:33:08.596Z,11.08
2019-05-15T07:35:40.355Z,6.22
2019-05-15T07:38:11.709Z,5.28
2019-05-15T07:40:43.147Z,6.58
2019-05-15T07:43:14.906Z,13.90
2019-05-15T07:45:52.458Z,12.20
2019-05-15T07:48:19.233Z,10.20
2019-05-15T07:50:50.797Z,11.53
2019-05-15T07:53:22.327Z,12.50
2019-05-15T07:55:54.262Z,9.53
2019-05-15T07:58:27.737Z,7.53
2019-05-15T08:00:59.153Z,11.00
2019-05-15T08:03:30.823Z,13.95
2019-05-15T08:06:05.283Z,12.75
2019-05-15T08:08:39.107Z,16.55
2019-05-15T08:11:20.476Z,16.17
2019-05-15T08:13:44.290Z,16.67
2019-05-15T08:16:17.960Z,15.45
2019-05-15T08:18:48.928Z,18.90
2019-05-15T08:21:20.207Z,18.15
2019-05-15T08:23:51.807Z,24.67
2019-05-15T08:26:23.982Z,19.37
2019-05-15T08:28:57.810Z,19.62
2019-05-15T08:31:28.911Z,19.32
2019-05-15T08:34:12.686Z,23.57
2019-05-15T08:36:33.314Z,22.15
2019-05-15T08:39:08.483Z,20.32
2019-05-15T08:41:39.664Z,24.67
2019-05-15T08:44:11.854Z,23.05
2019-05-15T08:46:44.372Z,17.05
2019-05-15T08:49:16.065Z,24.00
2019-05-15T08:51:48.730Z,14.83
2019-05-15T08:54:23.979Z,23.32
2019-05-15T08:56:55.433Z,15.25
2019-05-15T08:59:29.251Z,14.68
2019-05-15T09:02:01.491Z,15.83
2019-05-15T09:04:35.169Z,14.00
2019-05-15T09:07:09.266Z,12.37
2019-05-15T09:09:48.803Z,15.70
2019-05-15T09:12:20.420Z,16.35
2019-05-15T09:14:51.971Z,15.55
2019-05-15T09:17:28.577Z,12.33
2019-05-15T09:20:04.175Z,15.98
2019-05-15T09:22:38.254Z,10.82
2019-05-15T09:25:09.883Z,10.10
2019-05-15T09:27:41.205Z,11.00
2019-05-15T09:30:13.780Z,8.98
2019-05-15T09:32:45.435Z,8.80
2019-05-15T09:35:21.188Z,7.67
2019-05-15T09:37:52.537Z,11.25
2019-05-15T09:40:37.895Z,10.20
2019-05-15T09:42:57.830Z,8.35
2019-05-15T09:45:29.450Z,9.25
2019-05-15T09:48:00.791Z,9.25
2019-05-15T09:50:32.250Z,13.95
2019-05-15T09:53:03.708Z,11.90
2019-05-15T09:55:37.982Z,11.95
2019-05-15T09:58:09.293Z,9.50
2019-05-15T10:00:40.712Z,25.70
2019-05-15T10:03:12.266Z,8.90
2019-05-15T10:05:44.620Z,8.83
2019-05-15T10:08:16.183Z,11.57
2019-05-15T10:10:48.802Z,11.12
2019-05-15T10:13:20.313Z,13.22
2019-05-15T10:15:52.052Z,10.78
2019-05-15T10:18:23.417Z,8.33
2019-05-15T10:20:55.057Z,13.32
2019-05-15T10:23:28.872Z,12.37
2019-05-15T10:25:59.342Z,16.65
2019-05-15T10:28:30.553Z,12.90
2019-05-15T10:31:02.923Z,9.93
2019-05-15T10:33:34.283Z,12.00
2019-05-15T10:36:08.302Z,18.25
2019-05-15T10:38:39.215Z,19.05
2019-05-15T10:41:15.014Z,11.57
2019-05-15T10:43:47.031Z,8.63
2019-05-15T10:46:19.057Z,12.98
2019-05-15T10:48:50.761Z,14.80
2019-05-15T10:51:22.200Z,10.10
2019-05-15T10:53:54.396Z,12.35
2019-05-15T10:56:25.832Z,10.63
2019-05-15T10:58:59.078Z,12.47
2019-05-15T11:01:30.751Z,10.93
2019-05-15T11:04:02.527Z,9.75
2019-05-15T11:06:34.273Z,10.95
2019-05-15T11:09:08.390Z,11.10
2019-05-15T11:11:39.834Z,9.68
2019-05-15T11:14:12.013Z,12.60
2019-05-15T11:16:44.369Z,14.15
2019-05-15T11:19:15.835Z,11.68
2019-05-15T11:21:48.496Z,11.38
2019-05-15T11:24:20.988Z,11.88
2019-05-15T11:26:55.651Z,10.93
2019-05-15T11:29:25.186Z,8.60
2019-05-15T11:31:58.059Z,11.53
2019-05-15T11:34:29.474Z,12.58
2019-05-15T11:37:02.543Z,11.70
2019-05-15T11:39:33.984Z,11.33
2019-05-15T11:42:05.342Z,10.13
2019-05-15T11:44:38.722Z,24.45
2019-05-15T11:47:09.653Z,16.85
2019-05-15T11:49:42.858Z,13.10
2019-05-15T11:52:14.420Z,10.35
2019-05-15T11:54:45.679Z,19.82
2019-05-15T11:57:19.080Z,12.13
2019-05-15T11:59:55.197Z,13.35
2019-05-15T12:02:25.230Z,12.45
2019-05-15T12:04:58.369Z,15.90
2019-05-15T12:07:30.373Z,15.45
2019-05-15T12:10:02.880Z,8.60
2019-05-15T12:12:34.141Z,10.48
2019-05-15T12:15:05.877Z,10.00
2019-05-15T12:17:39.032Z,10.75
2019-05-15T12:20:11.242Z,10.03
2019-05-15T12:22:42.552Z,17.10
2019-05-15T12:25:14.049Z,13.50
2019-05-15T12:27:45.597Z,14.98
2019-05-15T12:30:19.334Z,11.50
2019-05-15T12:32:49.558Z,18.32
2019-05-15T12:35:20.808Z,16.40
2019-05-15T12:37:52.258Z,16.87
2019-05-15T13:01:44.146Z,16.20
2019-05-15T13:04:20.004Z,18.07
2019-05-15T13:07:11.868Z,17.48
2019-05-15T13:09:34.629Z,14.83
2019-05-15T13:12:14.001Z,12.63
2019-05-15T13:14:52.448Z,19.60
2019-05-15T13:17:31.641Z,14.95
2019-05-15T13:20:09.748Z,12.68
2019-05-15T13:22:55.073Z,12.23
2019-05-15T13:25:29.463Z,13.10
2019-05-15T13:28:22.160Z,18.60
2019-05-15T13:31:02.097Z,12.53
2019-05-15T13:33:39.376Z,19.48
2019-05-15T13:36:13.405Z,14.78
2019-05-15T13:38:54.076Z,12.05
2019-05-15T13:41:44.105Z,11.35
2019-05-15T13:44:22.754Z,14.73
2019-05-15T13:46:59.884Z,16.00
2019-05-15T13:49:35.576Z,19.25
2019-05-15T13:52:15.547Z,23.92
2019-05-15T13:54:54.565Z,13.88
2019-05-15T13:57:41.705Z,11.95
2019-05-15T14:00:21.432Z,13.55
2019-05-15T14:03:01.928Z,13.00
2019-05-15T14:05:50.377Z,16.77
2019-05-15T14:08:30.557Z,18.98
2019-05-15T14:11:14.783Z,20.48
2019-05-15T14:14:09.326Z,15.70
2019-05-15T14:23:02.240Z,23.38
2019-05-15T14:28:52.156Z,31.57
2019-05-15T14:31:32.231Z,26.45
2019-05-15T14:34:08.757Z,24.60
2019-05-15T14:36:40.716Z,20.70
2019-05-15T14:39:13.388Z,21.85
2019-05-15T14:41:45.846Z,23.35
2019-05-15T14:44:21.262Z,20.48
2019-05-15T14:46:50.869Z,24.52
2019-05-15T14:49:22.731Z,29.98
2019-05-15T14:52:05.710Z,25.17
2019-05-15T14:54:29.066Z,26.12
2019-05-15T14:57:00.515Z,34.30
2019-05-15T14:59:32.157Z,26.97
2019-05-15T15:02:03.813Z,20.00
2019-05-15T15:04:39.115Z,24.43
2019-05-15T15:07:11.035Z,21.80
2019-05-15T15:09:42.564Z,24.23
2019-05-15T15:12:14.532Z,20.45
2019-05-15T15:14:48.522Z,22.95
2019-05-15T15:17:21.525Z,22.75
2019-05-15T15:19:53.257Z,20.20
2019-05-15T15:22:28.383Z,22.82
2019-05-15T15:24:59.751Z,16.57
2019-05-15T15:27:32.556Z,31.80
2019-05-15T15:30:09.162Z,16.10
2019-05-15T15:32:42.574Z,16.50
2019-05-15T15:35:14.051Z,13.13
2019-05-15T15:37:48.706Z,15.25
2019-05-15T15:40:20.350Z,15.30
2019-05-15T15:42:51.837Z,20.12
2019-05-15T15:45:24.482Z,18.15
2019-05-15T15:47:56.029Z,16.20
2019-05-15T15:50:28.795Z,18.17
2019-05-15T15:53:00.886Z,11.50
2019-05-15T15:55:34.885Z,12.15
2019-05-15T15:58:08.513Z,11.78
2019-05-15T16:00:41.154Z,12.73
2019-05-15T16:03:12.359Z,10.78
2019-05-15T16:05:44.040Z,13.38
2019-05-15T16:08:18.913Z,9.78
2019-05-15T16:10:49.107Z,26.80
2019-05-15T16:13:20.755Z,10.90
2019-05-15T16:15:53.238Z,10.82
2019-05-15T16:18:25.610Z,10.72
2019-05-15T16:20:57.969Z,9.48
2019-05-15T16:23:29.442Z,18.77
2019-05-15T16:26:01.310Z,13.62
2019-05-15T16:28:34.602Z,25.88
2019-05-15T16:31:07.934Z,16.27
2019-05-15T16:33:39.587Z,22.27
2019-05-15T16:36:10.971Z,19.70
2019-05-15T16:38:42.754Z,13.50
2019-05-15T16:41:18.429Z,14.15
2019-05-15T16:43:49.543Z,15.38
2019-05-15T16:46:24.190Z,18.73
2019-05-15T16:48:54.180Z,12.00
2019-05-15T16:51:32.544Z,12.60
2019-05-15T16:54:03.928Z,9.80
2019-05-15T16:56:36.680Z,9.18
2019-05-15T16:59:09.932Z,9.30
2019-05-15T17:01:43.269Z,15.38
2019-05-15T17:04:18.023Z,14.10
2019-05-15T17:06:49.360Z,36.23
2019-05-15T17:09:21.831Z,11.03
2019-05-15T17:11:53.413Z,21.90
2019-05-15T17:14:25.279Z,19.00
2019-05-15T17:16:58.646Z,21.15
2019-05-15T17:19:30.023Z,22.82
2019-05-15T17:22:01.785Z,19.95
2019-05-15T17:24:33.747Z,24.98
2019-05-15T17:27:08.552Z,23.30
2019-05-15T17:29:39.006Z,34.67
2019-05-15T17:32:10.657Z,56.77
2019-05-15T17:34:44.203Z,42.90
2019-05-15T17:37:17.850Z,24.55
2019-05-15T17:40:00.225Z,30.37
2019-05-15T17:42:28.928Z,29.23
2019-05-15T17:45:04.251Z,20.95
2019-05-15T17:47:38.492Z,25.88
2019-05-15T17:50:10.992Z,21.93
2019-05-15T17:52:42.309Z,33.18
2019-05-15T17:55:13.752Z,32.45
2019-05-15T17:57:53.774Z,34.45
2019-05-15T18:00:21.297Z,34.85
2019-05-15T18:02:53.049Z,21.48
2019-05-15T18:05:25.169Z,23.20
2019-05-15T18:07:58.558Z,26.02
2019-05-15T18:10:30.136Z,24.50
2019-05-15T18:13:03.527Z,29.50
2019-05-15T18:15:35.521Z,25.02
2019-05-15T18:18:09.520Z,28.85
2019-05-15T18:20:41.088Z,23.73
2019-05-15T18:23:12.744Z,31.23
2019-05-15T18:25:45.225Z,28.40
2019-05-15T18:28:18.741Z,26.17
2019-05-15T18:30:51.704Z,30.85
2019-05-15T18:33:23.557Z,29.98
2019-05-15T18:35:55.109Z,35.92
2019-05-15T18:38:28.185Z,52.38
2019-05-15T18:40:59.431Z,48.58
2019-05-15T18:43:31.938Z,59.08
2019-05-15T18:46:03.283Z,65.00
2019-05-15T18:48:34.818Z,54.85
2019-05-15T18:51:08.127Z,37.35
2019-05-15T18:53:41.008Z,49.25
2019-05-15T18:56:13.673Z,37.93
2019-05-15T18:58:52.819Z,35.58
2019-05-15T19:01:24.261Z,39.85
2019-05-15T19:03:58.574Z,45.17
2019-05-15T19:06:30.043Z,45.17
2019-05-15T19:09:02.530Z,36.48
2019-05-15T19:11:38.278Z,32.83
2019-05-15T19:14:09.499Z,33.48
2019-05-15T19:16:40.849Z,39.00
2019-05-15T19:19:14.149Z,28.87
2019-05-15T19:21:45.400Z,33.18
2019-05-15T19:24:18.517Z,38.92
2019-05-15T19:26:49.722Z,45.08
2019-05-15T19:29:21.511Z,37.42
2019-05-15T19:31:53.437Z,44.90
2019-05-15T19:34:24.978Z,44.63
2019-05-15T19:36:58.162Z,47.67
2019-05-15T19:39:29.936Z,45.15
2019-05-15T19:42:01.309Z,43.02
2019-05-15T19:44:33.768Z,46.10
2019-05-15T19:47:05.149Z,43.05
2019-05-15T19:49:37.828Z,47.53
2019-05-15T19:52:09.564Z,51.88
2019-05-15T19:54:41.218Z,42.00
2019-05-15T19:57:14.143Z,86.80
2019-05-15T19:59:48.665Z,50.00
2019-05-15T20:02:19.872Z,47.48
2019-05-15T20:04:51.597Z,51.83
2019-05-15T20:07:24.028Z,47.48
2019-05-15T20:09:58.423Z,45.80
2019-05-15T20:12:30.712Z,51.95
2019-05-15T20:15:03.225Z,66.95
2019-05-15T20:17:35.801Z,45.08
2019-05-15T20:20:08.734Z,57.93
2019-05-15T20:22:41.361Z,42.53
2019-05-15T20:25:13.443Z,44.15
2019-05-15T20:27:44.705Z,38.20
2019-05-15T20:30:18.098Z,34.95
2019-05-15T20:32:49.186Z,41.98
2019-05-15T20:35:20.453Z,45.43
2019-05-15T20:37:52.873Z,39.27
2019-05-15T20:40:24.927Z,49.45
2019-05-15T20:42:58.975Z,80.05
2019-05-15T20:45:37.606Z,67.05
2019-05-15T20:48:09.203Z,52.50
2019-05-15T20:50:40.861Z,50.80
2019-05-15T20:53:12.156Z,43.05
2019-05-15T20:55:44.159Z,38.92
2019-05-15T20:58:15.513Z,34.73
2019-05-15T21:00:49.410Z,53.25
2019-05-15T21:03:19.981Z,36.15
2019-05-15T21:05:51.187Z,33.40
2019-05-15T21:08:23.045Z,44.85
2019-05-15T21:10:54.383Z,39.73
2019-05-15T21:13:27.813Z,41.55
2019-05-15T21:16:08.232Z,41.97
2019-05-15T21:18:41.415Z,40.05
2019-05-15T21:21:19.108Z,40.43
2019-05-15T21:23:50.692Z,38.13
2019-05-15T21:26:22.035Z,38.58
2019-05-15T21:28:53.536Z,32.48
2019-05-15T21:31:24.837Z,33.53
2019-05-15T21:33:56.233Z,35.15
2019-05-15T21:36:28.280Z,37.05
2019-05-15T21:39:08.748Z,33.95
2019-05-15T21:41:40.233Z,37.48
2019-05-15T21:44:11.521Z,43.48
2019-05-15T21:46:44.507Z,40.12
2019-05-15T21:49:16.091Z,41.15
2019-05-15T21:51:47.968Z,42.53
2019-05-15T21:54:19.460Z,35.40
2019-05-15T21:57:04.435Z,42.90
2019-05-15T21:59:23.989Z,48.05
2019-05-15T22:01:55.583Z,55.28
2019-05-15T22:04:28.111Z,49.67
2019-05-15T22:07:00.196Z,41.05
2019-05-15T22:09:31.861Z,67.80
2019-05-15T22:12:03.714Z,64.27
2019-05-15T22:14:37.895Z,68.17
2019-05-15T22:17:09.316Z,61.20
2019-05-15T22:19:41.861Z,56.08
2019-05-15T22:22:13.623Z,67.08
2019-05-15T22:24:45.061Z,56.13
2019-05-15T22:27:18.075Z,67.05
2019-05-15T22:29:49.717Z,61.70
2019-05-15T22:32:23.524Z,60.45
2019-05-15T22:35:06.183Z,59.33
2019-05-15T22:37:29.444Z,58.48
2019-05-15T22:40:01.217Z,58.50
2019-05-15T22:42:34.441Z,57.17
2019-05-15T22:45:11.542Z,76.95
2019-05-15T22:47:42.593Z,61.20
2019-05-15T22:50:14.626Z,69.27
2019-05-15T22:52:45.955Z,68.65
2019-05-15T22:55:18.420Z,61.18
2019-05-15T22:57:49.898Z,59.48
2019-05-15T23:00:21.119Z,54.55
2019-05-15T23:02:52.799Z,61.85
2019-05-15T23:05:28.421Z,71.25
2019-05-15T23:07:58.971Z,68.37
2019-05-15T23:10:29.941Z,78.67
2019-05-15T23:13:01.466Z,69.87
2019-05-15T23:15:33.248Z,71.00
2019-05-15T23:18:05.166Z,82.88
2019-05-15T23:20:38.770Z,68.02
2019-05-15T23:23:09.901Z,68.45
2019-05-15T23:25:42.303Z,77.12
2019-05-15T23:28:13.735Z,69.12
2019-05-15T23:30:48.397Z,70.78
2019-05-15T23:33:19.215Z,75.45
2019-05-15T23:35:50.463Z,90.45
2019-05-15T23:38:22.216Z,83.00
2019-05-15T23:40:53.565Z,80.07
2019-05-15T23:43:25.512Z,80.45
2019-05-15T23:45:58.751Z,70.35
2019-05-15T23:48:29.739Z,76.60
2019-05-15T23:51:02.136Z,72.90
2019-05-15T23:53:35.275Z,59.55
2019-05-15T23:56:09.180Z,61.40
2019-05-15T23:58:39.758Z,64.42
